sensor_id;sensor_type;location;lat;lon;timestamp;temperature;humidity
871;DHT22;422;51.280;7.236;2023-12-14T00:00:54;7.20;99.90
871;DHT22;422;51.280;7.236;2023-12-14T00:03:21;7.20;99.90
871;DHT22;422;51.280;7.236;2023-12-14T00:05:48;7.20;99.90
871;DHT22;422;51.280;7.236;2023-12-14T00:08:17;7.20;99.90
871;DHT22;422;51.280;7.236;2023-12-14T00:10:44;7.10;99.90
871;DHT22;422;51.280;7.236;2023-12-14T00:13:12;7.20;99.90
871;DHT22;422;51.280;7.236;2023-12-14T00:15:39;7.20;99.90
871;DHT22;422;51.280;7.236;2023-12-14T00:18:07;7.20;99.90
871;DHT22;422;51.280;7.236;2023-12-14T00:20:34;7.10;99.90
871;DHT22;422;51.280;7.236;2023-12-14T00:23:02;7.10;99.90
871;DHT22;422;51.280;7.236;2023-12-14T00:25:30;7.10;99.90
871;DHT22;422;51.280;7.236;2023-12-14T00:27:58;7.10;99.90
871;DHT22;422;51.280;7.236;2023-12-14T00:30:25;7.10;99.90
871;DHT22;422;51.280;7.236;2023-12-14T00:32:52;7.20;99.90
871;DHT22;422;51.280;7.236;2023-12-14T00:35:19;7.30;99.90
871;DHT22;422;51.280;7.236;2023-12-14T00:37:47;7.30;99.90
871;DHT22;422;51.280;7.236;2023-12-14T00:40:16;7.20;99.90
871;DHT22;422;51.280;7.236;2023-12-14T00:42:45;7.20;99.90
871;DHT22;422;51.280;7.236;2023-12-14T00:45:12;7.30;99.90
871;DHT22;422;51.280;7.236;2023-12-14T00:47:40;7.30;99.90
871;DHT22;422;51.280;7.236;2023-12-14T00:50:08;7.20;99.90
871;DHT22;422;51.280;7.236;2023-12-14T00:52:35;7.20;99.90
871;DHT22;422;51.280;7.236;2023-12-14T00:55:03;7.20;99.90
871;DHT22;422;51.280;7.236;2023-12-14T00:57:30;7.00;99.90
871;DHT22;422;51.280;7.236;2023-12-14T00:59:59;7.00;99.90
871;DHT22;422;51.280;7.236;2023-12-14T01:02:26;7.00;99.90
871;DHT22;422;51.280;7.236;2023-12-14T01:04:53;6.90;99.90
871;DHT22;422;51.280;7.236;2023-12-14T01:07:20;7.00;99.90
871;DHT22;422;51.280;7.236;2023-12-14T01:09:47;7.00;99.90
871;DHT22;422;51.280;7.236;2023-12-14T01:12:15;7.00;99.90
871;DHT22;422;51.280;7.236;2023-12-14T01:14:42;6.90;99.90
871;DHT22;422;51.280;7.236;2023-12-14T01:17:11;6.80;99.90
871;DHT22;422;51.280;7.236;2023-12-14T01:19:40;6.80;99.90
871;DHT22;422;51.280;7.236;2023-12-14T01:22:07;6.80;99.90
871;DHT22;422;51.280;7.236;2023-12-14T01:24:34;6.80;99.90
871;DHT22;422;51.280;7.236;2023-12-14T01:27:02;6.70;99.90
871;DHT22;422;51.280;7.236;2023-12-14T01:29:29;6.60;99.90
871;DHT22;422;51.280;7.236;2023-12-14T01:31:56;6.70;99.90
871;DHT22;422;51.280;7.236;2023-12-14T01:34:25;6.70;99.90
871;DHT22;422;51.280;7.236;2023-12-14T01:36:52;6.60;99.90
871;DHT22;422;51.280;7.236;2023-12-14T01:39:19;6.50;99.90
871;DHT22;422;51.280;7.236;2023-12-14T01:41:47;6.50;99.90
871;DHT22;422;51.280;7.236;2023-12-14T01:44:15;6.50;99.90
871;DHT22;422;51.280;7.236;2023-12-14T01:46:42;6.50;99.90
871;DHT22;422;51.280;7.236;2023-12-14T01:49:09;6.60;99.90
871;DHT22;422;51.280;7.236;2023-12-14T01:51:38;6.60;99.90
871;DHT22;422;51.280;7.236;2023-12-14T01:54:05;6.50;99.90
871;DHT22;422;51.280;7.236;2023-12-14T01:56:32;6.50;99.90
871;DHT22;422;51.280;7.236;2023-12-14T01:58:59;6.50;99.90
871;DHT22;422;51.280;7.236;2023-12-14T02:01:33;6.60;99.90
871;DHT22;422;51.280;7.236;2023-12-14T02:04:04;6.60;99.90
871;DHT22;422;51.280;7.236;2023-12-14T02:06:33;6.50;99.90
871;DHT22;422;51.280;7.236;2023-12-14T02:09:01;6.50;99.90
871;DHT22;422;51.280;7.236;2023-12-14T02:11:29;6.50;99.90
871;DHT22;422;51.280;7.236;2023-12-14T02:13:56;6.40;99.90
871;DHT22;422;51.280;7.236;2023-12-14T02:19:46;6.30;99.90
871;DHT22;422;51.280;7.236;2023-12-14T02:22:13;6.30;99.90
871;DHT22;422;51.280;7.236;2023-12-14T02:24:41;6.30;99.90
871;DHT22;422;51.280;7.236;2023-12-14T02:27:07;6.30;99.90
871;DHT22;422;51.280;7.236;2023-12-14T02:29:35;6.20;99.90
871;DHT22;422;51.280;7.236;2023-12-14T02:32:02;6.20;99.90
871;DHT22;422;51.280;7.236;2023-12-14T02:34:29;6.20;99.90
871;DHT22;422;51.280;7.236;2023-12-14T02:36:56;6.20;99.90
871;DHT22;422;51.280;7.236;2023-12-14T02:39:23;6.20;99.90
871;DHT22;422;51.280;7.236;2023-12-14T02:41:52;6.10;99.90
871;DHT22;422;51.280;7.236;2023-12-14T02:44:19;6.10;99.90
871;DHT22;422;51.280;7.236;2023-12-14T02:46:46;6.10;99.90
871;DHT22;422;51.280;7.236;2023-12-14T02:49:13;6.10;99.90
871;DHT22;422;51.280;7.236;2023-12-14T02:51:42;6.00;99.90
871;DHT22;422;51.280;7.236;2023-12-14T02:54:09;6.00;99.90
871;DHT22;422;51.280;7.236;2023-12-14T02:56:37;6.00;99.90
871;DHT22;422;51.280;7.236;2023-12-14T02:59:06;6.10;99.90
871;DHT22;422;51.280;7.236;2023-12-14T03:01:33;5.90;99.90
871;DHT22;422;51.280;7.236;2023-12-14T03:04:00;5.90;99.90
871;DHT22;422;51.280;7.236;2023-12-14T03:06:27;5.80;99.90
871;DHT22;422;51.280;7.236;2023-12-14T03:08:54;5.80;99.90
871;DHT22;422;51.280;7.236;2023-12-14T03:11:22;5.70;99.90
871;DHT22;422;51.280;7.236;2023-12-14T03:13:51;5.70;99.90
871;DHT22;422;51.280;7.236;2023-12-14T03:16:20;5.70;99.90
871;DHT22;422;51.280;7.236;2023-12-14T03:18:47;5.80;99.90
871;DHT22;422;51.280;7.236;2023-12-14T03:21:18;5.90;99.90
871;DHT22;422;51.280;7.236;2023-12-14T03:23:45;5.90;99.90
871;DHT22;422;51.280;7.236;2023-12-14T03:26:12;5.90;99.90
871;DHT22;422;51.280;7.236;2023-12-14T03:28:40;5.90;99.90
871;DHT22;422;51.280;7.236;2023-12-14T03:31:08;5.80;99.90
871;DHT22;422;51.280;7.236;2023-12-14T03:33:38;5.90;99.90
871;DHT22;422;51.280;7.236;2023-12-14T03:36:06;5.80;99.90
871;DHT22;422;51.280;7.236;2023-12-14T03:38:33;5.90;99.90
871;DHT22;422;51.280;7.236;2023-12-14T03:41:01;5.90;99.90
871;DHT22;422;51.280;7.236;2023-12-14T03:43:28;5.90;99.90
871;DHT22;422;51.280;7.236;2023-12-14T03:45:55;5.80;99.90
871;DHT22;422;51.280;7.236;2023-12-14T03:48:22;5.90;99.90
871;DHT22;422;51.280;7.236;2023-12-14T03:50:51;5.70;99.90
871;DHT22;422;51.280;7.236;2023-12-14T03:53:19;5.80;99.90
871;DHT22;422;51.280;7.236;2023-12-14T03:55:46;5.70;99.90
871;DHT22;422;51.280;7.236;2023-12-14T03:58:13;5.80;99.90
871;DHT22;422;51.280;7.236;2023-12-14T04:00:40;5.70;99.90
871;DHT22;422;51.280;7.236;2023-12-14T04:03:08;5.70;99.90
871;DHT22;422;51.280;7.236;2023-12-14T04:05:35;5.60;99.90
871;DHT22;422;51.280;7.236;2023-12-14T04:08:06;5.60;99.90
871;DHT22;422;51.280;7.236;2023-12-14T04:10:33;5.60;99.90
871;DHT22;422;51.280;7.236;2023-12-14T04:13:00;5.60;99.90
871;DHT22;422;51.280;7.236;2023-12-14T04:15:27;5.50;99.90
871;DHT22;422;51.280;7.236;2023-12-14T04:17:54;5.40;99.90
871;DHT22;422;51.280;7.236;2023-12-14T04:20:22;5.40;99.90
871;DHT22;422;51.280;7.236;2023-12-14T04:22:49;5.40;99.90
871;DHT22;422;51.280;7.236;2023-12-14T04:25:18;5.40;99.90
871;DHT22;422;51.280;7.236;2023-12-14T04:27:45;5.30;99.90
871;DHT22;422;51.280;7.236;2023-12-14T04:30:12;5.20;99.90
871;DHT22;422;51.280;7.236;2023-12-14T04:32:39;5.30;99.90
871;DHT22;422;51.280;7.236;2023-12-14T04:35:07;5.30;99.90
871;DHT22;422;51.280;7.236;2023-12-14T04:37:35;5.30;99.90
871;DHT22;422;51.280;7.236;2023-12-14T04:40:02;5.20;99.90
871;DHT22;422;51.280;7.236;2023-12-14T04:42:31;5.20;99.90
871;DHT22;422;51.280;7.236;2023-12-14T04:44:58;5.30;99.90
871;DHT22;422;51.280;7.236;2023-12-14T04:47:25;5.20;99.90
871;DHT22;422;51.280;7.236;2023-12-14T04:49:52;5.20;99.90
871;DHT22;422;51.280;7.236;2023-12-14T04:52:19;5.20;99.90
871;DHT22;422;51.280;7.236;2023-12-14T04:54:47;5.20;99.90
871;DHT22;422;51.280;7.236;2023-12-14T04:57:14;5.30;99.90
871;DHT22;422;51.280;7.236;2023-12-14T04:59:43;5.30;99.90
871;DHT22;422;51.280;7.236;2023-12-14T05:02:10;5.40;99.90
871;DHT22;422;51.280;7.236;2023-12-14T05:04:38;5.40;99.90
871;DHT22;422;51.280;7.236;2023-12-14T05:07:05;5.30;99.90
871;DHT22;422;51.280;7.236;2023-12-14T05:09:32;5.30;99.90
871;DHT22;422;51.280;7.236;2023-12-14T05:12:00;5.30;99.90
871;DHT22;422;51.280;7.236;2023-12-14T05:14:27;5.30;99.90
871;DHT22;422;51.280;7.236;2023-12-14T05:16:56;5.30;99.90
871;DHT22;422;51.280;7.236;2023-12-14T05:19:23;5.30;99.90
871;DHT22;422;51.280;7.236;2023-12-14T05:21:51;5.40;99.90
871;DHT22;422;51.280;7.236;2023-12-14T05:24:20;5.40;99.90
871;DHT22;422;51.280;7.236;2023-12-14T05:26:47;5.40;99.90
871;DHT22;422;51.280;7.236;2023-12-14T05:29:14;5.50;99.90
871;DHT22;422;51.280;7.236;2023-12-14T05:31:43;5.40;99.90
871;DHT22;422;51.280;7.236;2023-12-14T05:34:12;5.40;99.90
871;DHT22;422;51.280;7.236;2023-12-14T05:36:39;5.30;99.90
871;DHT22;422;51.280;7.236;2023-12-14T05:39:06;5.30;99.90
871;DHT22;422;51.280;7.236;2023-12-14T05:41:39;5.30;99.90
871;DHT22;422;51.280;7.236;2023-12-14T05:44:07;5.20;99.90
871;DHT22;422;51.280;7.236;2023-12-14T05:46:34;5.30;99.90
871;DHT22;422;51.280;7.236;2023-12-14T05:49:01;5.30;99.90
871;DHT22;422;51.280;7.236;2023-12-14T05:51:32;5.30;99.90
871;DHT22;422;51.280;7.236;2023-12-14T05:53:59;5.30;99.90
871;DHT22;422;51.280;7.236;2023-12-14T05:56:26;5.30;99.90
871;DHT22;422;51.280;7.236;2023-12-14T05:58:54;5.30;99.90
871;DHT22;422;51.280;7.236;2023-12-14T06:01:23;5.30;99.90
871;DHT22;422;51.280;7.236;2023-12-14T06:03:51;5.30;99.90
871;DHT22;422;51.280;7.236;2023-12-14T06:06:18;5.20;99.90
871;DHT22;422;51.280;7.236;2023-12-14T06:08:46;5.30;99.90
871;DHT22;422;51.280;7.236;2023-12-14T06:11:14;5.20;99.90
871;DHT22;422;51.280;7.236;2023-12-14T06:13:41;5.20;99.90
871;DHT22;422;51.280;7.236;2023-12-14T06:16:08;5.20;99.90
871;DHT22;422;51.280;7.236;2023-12-14T06:18:39;5.20;99.90
871;DHT22;422;51.280;7.236;2023-12-14T06:21:07;5.20;99.90
871;DHT22;422;51.280;7.236;2023-12-14T06:23:37;5.20;99.90
871;DHT22;422;51.280;7.236;2023-12-14T06:26:06;5.10;99.90
871;DHT22;422;51.280;7.236;2023-12-14T06:28:33;5.20;99.90
871;DHT22;422;51.280;7.236;2023-12-14T06:31:00;5.10;99.90
871;DHT22;422;51.280;7.236;2023-12-14T06:33:28;5.10;99.90
871;DHT22;422;51.280;7.236;2023-12-14T06:35:55;5.20;99.90
871;DHT22;422;51.280;7.236;2023-12-14T06:38:22;5.20;99.90
871;DHT22;422;51.280;7.236;2023-12-14T06:40:49;5.10;99.90
871;DHT22;422;51.280;7.236;2023-12-14T06:43:18;5.10;99.90
871;DHT22;422;51.280;7.236;2023-12-14T06:45:45;5.10;99.90
871;DHT22;422;51.280;7.236;2023-12-14T06:48:13;5.20;99.90
871;DHT22;422;51.280;7.236;2023-12-14T06:50:40;5.10;99.90
871;DHT22;422;51.280;7.236;2023-12-14T06:53:07;5.10;99.90
871;DHT22;422;51.280;7.236;2023-12-14T06:55:34;5.10;99.90
871;DHT22;422;51.280;7.236;2023-12-14T06:58:02;5.10;99.90
871;DHT22;422;51.280;7.236;2023-12-14T07:00:30;5.00;99.90
871;DHT22;422;51.280;7.236;2023-12-14T07:02:57;5.00;99.90
871;DHT22;422;51.280;7.236;2023-12-14T07:05:25;5.00;99.90
871;DHT22;422;51.280;7.236;2023-12-14T07:07:52;5.00;99.90
871;DHT22;422;51.280;7.236;2023-12-14T07:10:19;4.90;99.90
871;DHT22;422;51.280;7.236;2023-12-14T07:12:47;5.00;99.90
871;DHT22;422;51.280;7.236;2023-12-14T07:15:14;4.90;99.90
871;DHT22;422;51.280;7.236;2023-12-14T07:17:43;4.90;99.90
871;DHT22;422;51.280;7.236;2023-12-14T07:20:11;4.80;99.90
871;DHT22;422;51.280;7.236;2023-12-14T07:22:39;4.80;99.90
871;DHT22;422;51.280;7.236;2023-12-14T07:25:07;4.80;99.90
871;DHT22;422;51.280;7.236;2023-12-14T07:27:34;4.80;99.90
871;DHT22;422;51.280;7.236;2023-12-14T07:30:01;4.80;99.90
871;DHT22;422;51.280;7.236;2023-12-14T07:32:29;4.80;99.90
871;DHT22;422;51.280;7.236;2023-12-14T07:34:57;4.70;99.90
871;DHT22;422;51.280;7.236;2023-12-14T07:37:25;4.70;99.90
871;DHT22;422;51.280;7.236;2023-12-14T07:39:52;4.70;99.90
871;DHT22;422;51.280;7.236;2023-12-14T07:42:19;4.80;99.90
871;DHT22;422;51.280;7.236;2023-12-14T07:44:46;4.70;99.90
871;DHT22;422;51.280;7.236;2023-12-14T07:47:14;4.70;99.90
871;DHT22;422;51.280;7.236;2023-12-14T07:49:41;4.60;99.90
871;DHT22;422;51.280;7.236;2023-12-14T07:52:10;4.70;99.90
871;DHT22;422;51.280;7.236;2023-12-14T07:54:39;4.60;99.90
871;DHT22;422;51.280;7.236;2023-12-14T07:57:06;4.70;99.90
871;DHT22;422;51.280;7.236;2023-12-14T07:59:34;4.70;99.90
871;DHT22;422;51.280;7.236;2023-12-14T08:02:01;4.60;99.90
871;DHT22;422;51.280;7.236;2023-12-14T08:04:29;4.70;99.90
871;DHT22;422;51.280;7.236;2023-12-14T08:06:56;4.70;99.90
871;DHT22;422;51.280;7.236;2023-12-14T08:09:25;4.70;99.90
871;DHT22;422;51.280;7.236;2023-12-14T08:11:53;4.60;99.90
871;DHT22;422;51.280;7.236;2023-12-14T08:14:20;4.60;99.90
871;DHT22;422;51.280;7.236;2023-12-14T08:16:47;4.60;99.90
871;DHT22;422;51.280;7.236;2023-12-14T08:19:15;4.60;99.90
871;DHT22;422;51.280;7.236;2023-12-14T08:21:42;4.70;99.90
871;DHT22;422;51.280;7.236;2023-12-14T08:24:09;4.60;99.90
871;DHT22;422;51.280;7.236;2023-12-14T08:26:38;4.60;99.90
871;DHT22;422;51.280;7.236;2023-12-14T08:29:05;4.70;99.90
871;DHT22;422;51.280;7.236;2023-12-14T08:31:34;4.70;99.90
871;DHT22;422;51.280;7.236;2023-12-14T08:34:01;4.70;99.90
871;DHT22;422;51.280;7.236;2023-12-14T08:36:29;4.70;99.90
871;DHT22;422;51.280;7.236;2023-12-14T08:38:57;4.70;99.90
871;DHT22;422;51.280;7.236;2023-12-14T08:41:25;4.70;99.90
871;DHT22;422;51.280;7.236;2023-12-14T08:43:54;4.70;99.90
871;DHT22;422;51.280;7.236;2023-12-14T08:46:22;4.60;99.90
871;DHT22;422;51.280;7.236;2023-12-14T08:48:49;4.60;99.90
871;DHT22;422;51.280;7.236;2023-12-14T08:51:17;4.80;99.90
871;DHT22;422;51.280;7.236;2023-12-14T08:53:46;4.70;99.90
871;DHT22;422;51.280;7.236;2023-12-14T08:56:14;4.70;99.90
871;DHT22;422;51.280;7.236;2023-12-14T08:58:41;4.60;99.90
871;DHT22;422;51.280;7.236;2023-12-14T09:01:10;4.60;99.90
871;DHT22;422;51.280;7.236;2023-12-14T09:03:38;4.60;99.90
871;DHT22;422;51.280;7.236;2023-12-14T09:06:05;4.60;99.90
871;DHT22;422;51.280;7.236;2023-12-14T09:08:33;4.60;99.90
871;DHT22;422;51.280;7.236;2023-12-14T09:11:03;4.50;99.90
871;DHT22;422;51.280;7.236;2023-12-14T09:13:31;4.40;99.90
871;DHT22;422;51.280;7.236;2023-12-14T09:15:58;4.40;99.90
871;DHT22;422;51.280;7.236;2023-12-14T09:18:27;4.40;99.90
871;DHT22;422;51.280;7.236;2023-12-14T09:20:54;4.40;99.90
871;DHT22;422;51.280;7.236;2023-12-14T09:23:22;4.40;99.90
871;DHT22;422;51.280;7.236;2023-12-14T09:25:49;4.40;99.90
871;DHT22;422;51.280;7.236;2023-12-14T09:28:16;4.40;99.90
871;DHT22;422;51.280;7.236;2023-12-14T09:30:44;4.50;99.90
871;DHT22;422;51.280;7.236;2023-12-14T09:33:12;4.40;99.90
871;DHT22;422;51.280;7.236;2023-12-14T09:35:40;4.40;99.90
871;DHT22;422;51.280;7.236;2023-12-14T09:38:08;4.40;99.90
871;DHT22;422;51.280;7.236;2023-12-14T09:40:36;4.50;99.90
871;DHT22;422;51.280;7.236;2023-12-14T09:43:04;4.50;99.90
871;DHT22;422;51.280;7.236;2023-12-14T09:45:31;4.40;99.90
871;DHT22;422;51.280;7.236;2023-12-14T09:48:00;4.50;99.90
871;DHT22;422;51.280;7.236;2023-12-14T09:50:29;4.50;99.90
871;DHT22;422;51.280;7.236;2023-12-14T09:52:58;4.50;99.90
871;DHT22;422;51.280;7.236;2023-12-14T09:55:26;4.40;99.90
871;DHT22;422;51.280;7.236;2023-12-14T09:57:53;4.40;99.90
871;DHT22;422;51.280;7.236;2023-12-14T10:00:33;4.40;99.90
871;DHT22;422;51.280;7.236;2023-12-14T10:03:19;4.50;99.90
871;DHT22;422;51.280;7.236;2023-12-14T10:05:47;4.60;99.90
871;DHT22;422;51.280;7.236;2023-12-14T10:08:18;4.60;99.90
871;DHT22;422;51.280;7.236;2023-12-14T10:10:47;4.70;99.90
871;DHT22;422;51.280;7.236;2023-12-14T10:13:17;4.80;99.90
871;DHT22;422;51.280;7.236;2023-12-14T10:15:46;4.80;99.90
871;DHT22;422;51.280;7.236;2023-12-14T10:18:21;4.70;99.90
871;DHT22;422;51.280;7.236;2023-12-14T10:20:49;4.80;99.90
871;DHT22;422;51.280;7.236;2023-12-14T10:23:17;4.90;99.90
871;DHT22;422;51.280;7.236;2023-12-14T10:25:45;4.90;99.90
871;DHT22;422;51.280;7.236;2023-12-14T10:28:13;4.90;99.90
871;DHT22;422;51.280;7.236;2023-12-14T10:30:40;4.90;99.90
871;DHT22;422;51.280;7.236;2023-12-14T10:33:08;4.80;99.90
871;DHT22;422;51.280;7.236;2023-12-14T10:35:35;4.90;99.90
871;DHT22;422;51.280;7.236;2023-12-14T10:38:04;4.90;99.90
871;DHT22;422;51.280;7.236;2023-12-14T10:40:35;4.90;99.90
871;DHT22;422;51.280;7.236;2023-12-14T10:43:07;4.80;99.90
871;DHT22;422;51.280;7.236;2023-12-14T10:45:35;4.80;99.90
871;DHT22;422;51.280;7.236;2023-12-14T10:48:05;4.70;99.90
871;DHT22;422;51.280;7.236;2023-12-14T10:50:34;4.70;99.90
871;DHT22;422;51.280;7.236;2023-12-14T10:53:03;4.70;99.90
871;DHT22;422;51.280;7.236;2023-12-14T10:55:36;4.60;99.90
871;DHT22;422;51.280;7.236;2023-12-14T10:58:04;4.60;99.90
871;DHT22;422;51.280;7.236;2023-12-14T11:00:32;4.70;99.90
871;DHT22;422;51.280;7.236;2023-12-14T11:03:00;4.70;99.90
871;DHT22;422;51.280;7.236;2023-12-14T11:05:28;4.80;99.90
871;DHT22;422;51.280;7.236;2023-12-14T11:07:59;4.70;99.90
871;DHT22;422;51.280;7.236;2023-12-14T11:10:40;4.70;99.90
871;DHT22;422;51.280;7.236;2023-12-14T11:13:10;4.60;99.90
871;DHT22;422;51.280;7.236;2023-12-14T11:15:40;4.60;99.90
871;DHT22;422;51.280;7.236;2023-12-14T11:18:27;4.60;99.90
871;DHT22;422;51.280;7.236;2023-12-14T11:20:56;4.60;99.90
871;DHT22;422;51.280;7.236;2023-12-14T11:23:35;4.70;99.90
871;DHT22;422;51.280;7.236;2023-12-14T11:26:05;4.70;99.90
871;DHT22;422;51.280;7.236;2023-12-14T11:28:34;4.60;99.90
871;DHT22;422;51.280;7.236;2023-12-14T11:31:02;4.60;99.90
871;DHT22;422;51.280;7.236;2023-12-14T11:33:32;4.60;99.90
871;DHT22;422;51.280;7.236;2023-12-14T11:36:01;4.50;99.90
871;DHT22;422;51.280;7.236;2023-12-14T11:38:30;4.50;99.90
871;DHT22;422;51.280;7.236;2023-12-14T11:40:58;4.50;99.90
871;DHT22;422;51.280;7.236;2023-12-14T11:43:27;4.50;99.90
871;DHT22;422;51.280;7.236;2023-12-14T11:45:55;4.60;99.90
871;DHT22;422;51.280;7.236;2023-12-14T11:48:22;4.60;99.90
871;DHT22;422;51.280;7.236;2023-12-14T11:50:50;4.50;99.90
871;DHT22;422;51.280;7.236;2023-12-14T11:53:18;4.60;99.90
871;DHT22;422;51.280;7.236;2023-12-14T11:55:46;4.60;99.90
871;DHT22;422;51.280;7.236;2023-12-14T11:58:14;4.60;99.90
871;DHT22;422;51.280;7.236;2023-12-14T12:00:44;4.60;99.90
871;DHT22;422;51.280;7.236;2023-12-14T12:03:14;4.70;99.90
871;DHT22;422;51.280;7.236;2023-12-14T12:05:42;4.70;99.90
871;DHT22;422;51.280;7.236;2023-12-14T12:08:11;4.60;99.90
871;DHT22;422;51.280;7.236;2023-12-14T12:10:40;4.80;99.90
871;DHT22;422;51.280;7.236;2023-12-14T12:13:11;4.80;99.90
871;DHT22;422;51.280;7.236;2023-12-14T12:15:38;4.80;99.90
871;DHT22;422;51.280;7.236;2023-12-14T12:18:08;4.90;99.90
871;DHT22;422;51.280;7.236;2023-12-14T12:20:36;5.00;99.90
871;DHT22;422;51.280;7.236;2023-12-14T12:23:03;5.10;99.90
871;DHT22;422;51.280;7.236;2023-12-14T12:25:31;5.20;99.90
871;DHT22;422;51.280;7.236;2023-12-14T12:28:00;5.30;99.90
871;DHT22;422;51.280;7.236;2023-12-14T12:30:28;5.20;99.90
871;DHT22;422;51.280;7.236;2023-12-14T12:32:55;5.20;99.90
871;DHT22;422;51.280;7.236;2023-12-14T12:35:24;5.00;99.90
871;DHT22;422;51.280;7.236;2023-12-14T12:37:52;4.90;99.90
871;DHT22;422;51.280;7.236;2023-12-14T12:40:20;4.80;99.90
871;DHT22;422;51.280;7.236;2023-12-14T12:42:48;4.80;99.90
871;DHT22;422;51.280;7.236;2023-12-14T12:45:16;4.80;99.90
871;DHT22;422;51.280;7.236;2023-12-14T12:47:43;4.80;99.90
871;DHT22;422;51.280;7.236;2023-12-14T12:50:11;4.90;99.90
871;DHT22;422;51.280;7.236;2023-12-14T12:52:40;4.90;99.90
871;DHT22;422;51.280;7.236;2023-12-14T12:55:09;4.90;99.90
871;DHT22;422;51.280;7.236;2023-12-14T12:57:37;4.90;99.90
871;DHT22;422;51.280;7.236;2023-12-14T13:00:05;4.80;99.90
871;DHT22;422;51.280;7.236;2023-12-14T13:02:36;4.80;99.90
871;DHT22;422;51.280;7.236;2023-12-14T13:05:05;4.80;99.90
871;DHT22;422;51.280;7.236;2023-12-14T13:07:33;4.80;99.90
871;DHT22;422;51.280;7.236;2023-12-14T13:10:02;4.70;99.90
871;DHT22;422;51.280;7.236;2023-12-14T13:12:30;4.80;99.90
871;DHT22;422;51.280;7.236;2023-12-14T13:14:58;4.70;99.90
871;DHT22;422;51.280;7.236;2023-12-14T13:17:27;4.80;99.90
871;DHT22;422;51.280;7.236;2023-12-14T13:19:54;4.80;99.90
871;DHT22;422;51.280;7.236;2023-12-14T13:22:21;4.80;99.90
871;DHT22;422;51.280;7.236;2023-12-14T13:24:48;4.70;99.90
871;DHT22;422;51.280;7.236;2023-12-14T13:27:17;4.80;99.90
871;DHT22;422;51.280;7.236;2023-12-14T13:29:44;4.70;99.90
871;DHT22;422;51.280;7.236;2023-12-14T13:32:12;4.70;99.90
871;DHT22;422;51.280;7.236;2023-12-14T13:34:39;4.70;99.90
871;DHT22;422;51.280;7.236;2023-12-14T13:37:06;4.60;99.90
871;DHT22;422;51.280;7.236;2023-12-14T13:39:34;4.60;99.90
871;DHT22;422;51.280;7.236;2023-12-14T13:42:04;4.60;99.90
871;DHT22;422;51.280;7.236;2023-12-14T13:44:33;4.60;99.90
871;DHT22;422;51.280;7.236;2023-12-14T13:47:01;4.50;99.90
871;DHT22;422;51.280;7.236;2023-12-14T13:49:29;4.50;99.90
871;DHT22;422;51.280;7.236;2023-12-14T13:51:56;4.60;99.90
871;DHT22;422;51.280;7.236;2023-12-14T13:54:24;4.60;99.90
871;DHT22;422;51.280;7.236;2023-12-14T13:56:51;4.60;99.90
871;DHT22;422;51.280;7.236;2023-12-14T13:59:19;4.60;99.90
871;DHT22;422;51.280;7.236;2023-12-14T14:01:48;4.50;99.90
871;DHT22;422;51.280;7.236;2023-12-14T14:04:16;4.50;99.90
871;DHT22;422;51.280;7.236;2023-12-14T14:06:44;4.50;99.90
871;DHT22;422;51.280;7.236;2023-12-14T14:09:12;4.50;99.90
871;DHT22;422;51.280;7.236;2023-12-14T14:11:40;4.40;99.90
871;DHT22;422;51.280;7.236;2023-12-14T14:14:11;4.40;99.90
871;DHT22;422;51.280;7.236;2023-12-14T14:16:39;4.40;99.90
871;DHT22;422;51.280;7.236;2023-12-14T14:19:08;4.40;99.90
871;DHT22;422;51.280;7.236;2023-12-14T14:21:35;4.50;99.90
871;DHT22;422;51.280;7.236;2023-12-14T14:24:03;4.40;99.90
871;DHT22;422;51.280;7.236;2023-12-14T14:26:31;4.50;99.90
871;DHT22;422;51.280;7.236;2023-12-14T14:28:58;4.40;99.90
871;DHT22;422;51.280;7.236;2023-12-14T14:31:28;4.40;99.90
871;DHT22;422;51.280;7.236;2023-12-14T14:33:58;4.50;99.90
871;DHT22;422;51.280;7.236;2023-12-14T14:36:27;4.40;99.90
871;DHT22;422;51.280;7.236;2023-12-14T14:38:55;4.30;99.90
871;DHT22;422;51.280;7.236;2023-12-14T14:41:23;4.20;99.90
871;DHT22;422;51.280;7.236;2023-12-14T14:43:51;4.10;99.90
871;DHT22;422;51.280;7.236;2023-12-14T14:46:18;4.10;99.90
871;DHT22;422;51.280;7.236;2023-12-14T14:48:46;4.10;99.90
871;DHT22;422;51.280;7.236;2023-12-14T14:51:13;4.20;99.90
871;DHT22;422;51.280;7.236;2023-12-14T14:53:42;4.20;99.90
871;DHT22;422;51.280;7.236;2023-12-14T14:56:10;4.20;99.90
871;DHT22;422;51.280;7.236;2023-12-14T14:58:37;4.20;99.90
871;DHT22;422;51.280;7.236;2023-12-14T15:01:05;4.20;99.90
871;DHT22;422;51.280;7.236;2023-12-14T15:03:35;4.10;99.90
871;DHT22;422;51.280;7.236;2023-12-14T15:06:02;4.20;99.90
871;DHT22;422;51.280;7.236;2023-12-14T15:08:30;4.10;99.90
871;DHT22;422;51.280;7.236;2023-12-14T15:10:59;4.10;99.90
871;DHT22;422;51.280;7.236;2023-12-14T15:13:26;4.20;99.90
871;DHT22;422;51.280;7.236;2023-12-14T15:15:55;4.20;99.90
871;DHT22;422;51.280;7.236;2023-12-14T15:18:22;4.20;99.90
871;DHT22;422;51.280;7.236;2023-12-14T15:20:50;4.20;99.90
871;DHT22;422;51.280;7.236;2023-12-14T15:23:19;4.20;99.90
871;DHT22;422;51.280;7.236;2023-12-14T15:25:46;4.10;99.90
871;DHT22;422;51.280;7.236;2023-12-14T15:28:15;4.20;99.90
871;DHT22;422;51.280;7.236;2023-12-14T15:30:42;4.20;99.90
871;DHT22;422;51.280;7.236;2023-12-14T15:33:10;4.20;99.90
871;DHT22;422;51.280;7.236;2023-12-14T15:35:37;4.30;99.90
871;DHT22;422;51.280;7.236;2023-12-14T15:38:04;4.20;99.90
871;DHT22;422;51.280;7.236;2023-12-14T15:40:33;4.30;99.90
871;DHT22;422;51.280;7.236;2023-12-14T15:43:02;4.20;99.90
871;DHT22;422;51.280;7.236;2023-12-14T15:45:30;4.30;99.90
871;DHT22;422;51.280;7.236;2023-12-14T15:47:59;4.30;99.90
871;DHT22;422;51.280;7.236;2023-12-14T15:50:26;4.30;99.90
871;DHT22;422;51.280;7.236;2023-12-14T15:52:53;4.30;99.90
871;DHT22;422;51.280;7.236;2023-12-14T15:55:21;4.30;99.90
871;DHT22;422;51.280;7.236;2023-12-14T15:57:50;4.30;99.90
871;DHT22;422;51.280;7.236;2023-12-14T16:00:18;4.30;99.90
871;DHT22;422;51.280;7.236;2023-12-14T16:02:47;4.20;99.90
871;DHT22;422;51.280;7.236;2023-12-14T16:05:15;4.20;99.90
871;DHT22;422;51.280;7.236;2023-12-14T16:07:42;4.20;99.90
871;DHT22;422;51.280;7.236;2023-12-14T16:10:10;4.20;99.90
871;DHT22;422;51.280;7.236;2023-12-14T16:12:37;4.20;99.90
871;DHT22;422;51.280;7.236;2023-12-14T16:15:06;4.20;99.90
871;DHT22;422;51.280;7.236;2023-12-14T16:17:33;4.10;99.90
871;DHT22;422;51.280;7.236;2023-12-14T16:20:03;4.10;99.90
871;DHT22;422;51.280;7.236;2023-12-14T16:22:30;4.00;99.90
871;DHT22;422;51.280;7.236;2023-12-14T16:24:58;4.00;99.90
871;DHT22;422;51.280;7.236;2023-12-14T16:27:26;4.00;99.90
871;DHT22;422;51.280;7.236;2023-12-14T16:29:54;3.90;99.90
871;DHT22;422;51.280;7.236;2023-12-14T16:32:21;3.90;99.90
871;DHT22;422;51.280;7.236;2023-12-14T16:34:49;3.80;99.90
871;DHT22;422;51.280;7.236;2023-12-14T16:37:17;3.90;99.90
871;DHT22;422;51.280;7.236;2023-12-14T16:39:45;3.80;99.90
871;DHT22;422;51.280;7.236;2023-12-14T16:42:12;3.90;99.90
871;DHT22;422;51.280;7.236;2023-12-14T16:44:40;3.90;99.90
871;DHT22;422;51.280;7.236;2023-12-14T16:47:07;3.80;99.90
871;DHT22;422;51.280;7.236;2023-12-14T16:49:35;3.80;99.90
871;DHT22;422;51.280;7.236;2023-12-14T16:52:03;3.80;99.90
871;DHT22;422;51.280;7.236;2023-12-14T16:54:32;3.80;99.90
871;DHT22;422;51.280;7.236;2023-12-14T16:56:59;3.80;99.90
871;DHT22;422;51.280;7.236;2023-12-14T16:59:28;3.80;99.90